Saturday, February 24, 2018, 9:55 AM GMT
Back to Local

CYCX, Gagetown Can-Mil

Location: , , Canada Lat: 45.833
Local Time: 9:55 AM GMT ( 9:55 GMT) Lon: -66.433
Time Zone: GMT Elev: 167 ft

Show me the last for .
Show Decoded

2018-02-24 09:42 METAR CYCX 240942Z 23012KT 15SM -SHRA OVC007 01/M00 A2981 RMK ST8 DA-1287FT PCPN
                 VRY LGT SLP097 =
2018-02-24 09:00 METAR CYCX 240900Z 23013G18KT 15SM OVC008 01/M00 A2981 RMK ST8 DA-1262FT SLP097
                 =
2018-02-24 08:00 METAR CYCX 240800Z 23015KT 15SM BKN010 OVC050 01/M01 A2983 RMK SF7SC1 DA-1273FT
                 SLP104 =
2018-02-24 07:00 METAR CYCX 240700Z 22013G21KT 15SM BKN013 OVC042 01/M01 A2986 RMK SF7SC1
                 DA-1360FT SLP114 =
2018-02-24 06:10 METAR CYCX 240610Z 22010G15KT 12SM -SHRA OVC009 00/M01 A2990 RMK ST8 DA-1510FT
                 PRESFR PCPN VRY LGT SLP128 =
2018-02-24 06:00 METAR CYCX 240600Z 21011KT 9SM -SN OVC009 M00/M02 A2991 RMK ST8 DA-1561FT PRESFR
                 PCPN VRY LGT SLP130 =
2018-02-24 05:41 METAR CYCX 240541Z 20008KT 4SM -SN OVC007 M01/M02 A2993 RMK ST8 DA-1649FT PRESFR
                 PCPN VRY LGT SLP139 =
2018-02-24 05:18 METAR CYCX 240518Z 20006KT 2 1/4SM -SN OVC008 M01/M03 A2996 RMK ST8 DA-1763FT
                 PRESFR SLP147 =
2018-02-24 05:00 METAR CYCX 240500Z 19008KT 1SM -SN VV007 M02/M03 A2998 RMK SN8 DA-1839FT PRESFR
                 SLP156 =
2018-02-24 04:33 METAR CYCX 240433Z 19005KT 1 3/4SM -SN OVC010 M02/M04 A3001 RMK ST8 DA-1940FT
                 SLP167 =
2018-02-24 04:00 METAR CYCX 240400Z 20003KT 180V240 3SM -SN OVC012 M03/M04 A3004 RMK ST8
                 DA-2042FT SLP177 =
2018-02-24 03:43 METAR CYCX 240343Z 21004KT 3SM -SN OVC012 M03/M05 A3006 RMK ST8 DA-2092FT SLP181
                 =
2018-02-24 03:15 METAR CYCX 240315Z 23003KT 170V250 2SM -SNPL OVC009 M03/M05 A3009 RMK ST8
                 DA-2193FT SLP192 =
2018-02-24 03:00 METAR CYCX 240300Z 20004KT 1 1/4SM -SN VV009 M03/M05 A3009 RMK SN8 DA-2220FT
                 PRESFR SLP195 =
2018-02-24 02:52 METAR CYCX 240252Z 19006KT 1 1/4SM -SHSN VV009 M03/M06 A3010 RMK SN8 DA-2232FT
                 PRESFR SLP197 =
2018-02-24 02:34 METAR CYCX 240234Z 19006KT 2 1/4SM -SN OVC014 M04/M06 A3012 RMK ST8 DA-2296FT
                 PRESFR /S02/ SLP204 =
2018-02-24 02:00 METAR CYCX 240200Z 19008KT 150V210 1/2SM SN VV005 M04/M07 A3016 RMK SN8
                 DA-2396FT PRESFR /S01/ SLP218 =
2018-02-24 01:10 METAR CYCX 240110Z 18008KT 150V210 1/2SM SN VV005 M04/M09 A3023 RMK SN8
                 DA-2445FT PRESFR SLP239 =
2018-02-24 01:00 METAR CYCX 240100Z 18008G16KT 15SM -SN OVC032 M03/M11 A3025 RMK SC8 DA-2372FT
                 PRESFR PCPN VRY LGT SLP247 =
2018-02-24 00:35 METAR CYCX 240035Z 19007KT 15SM -SN OVC038 M03/M12 A3029 RMK SC8 DA-2407FT
                 SLP259 =
2018-02-24 00:00 METAR CYCX 240000Z 18006KT 160V220 15SM OVC061 M03/M12 A3032 RMK SC8 DA-2416FT
                 SLP269 =
2018-02-23 23:00 METAR CYCX 232300Z 19005KT 15SM BKN085 OVC220 M02/M11 A3037 RMK AC7CI1 DA-2382FT
                 SLP287 =
2018-02-23 22:00 METAR CYCX 232200Z 19007KT 15SM BKN094 OVC220 M01/M13 A3040 RMK AC5CI3 DA-2306FT
                 PRESFR SLP298 =
2018-02-23 21:00 METAR CYCX 232100Z 21005KT 160V220 15SM SCT100 OVC220 M01/M14 A3046 RMK AC4CI4
                 DA-2350FT SLP318 =
2018-02-23 20:00 METAR CYCX 232000Z 26004KT 220V300 15SM FEW110 OVC220 M02/M14 A3048 RMK AC2CI6
                 DA-2462FT CS ASOCTD SLP325 =
2018-02-23 19:00 METAR CYCX 231900Z 23006KT 210V330 15SM FEW084 OVC220 M02/M13 A3053 RMK AC1CI7
                 DA-2557FT SLP342 =
2018-02-23 18:00 METAR CYCX 231800Z 33002KT 15SM FEW085 BKN220 M03/M15 A3058 RMK AC1CS6 DA-2733FT
                 HALO SLP360 =
2018-02-23 17:00 METAR CYCX 231700Z 05003KT 270V070 15SM FEW085 SCT220 M03/M14 A3064 RMK AC1CS4
                 DA-2878FT HALO SLP379 =
2018-02-23 16:00 METAR CYCX 231600Z 28004KT 260V010 15SM FEW084 BKN220 M04/M14 A3068 RMK AC2CI2
                 DA-3053FT SLP394 =
2018-02-23 15:00 METAR CYCX 231500Z 29003KT 15SM FEW220 M05/M14 A3071 RMK CI1 DA-3165FT SLP403 =
2018-02-23 14:00 METAR CYCX 231400Z 00000KT 15SM FEW220 M07/M14 A3073 RMK CI1 DA-3384FT SLP410 =
2018-02-23 13:00 METAR CYCX 231300Z 26002KT 15SM FEW220 M10/M14 A3074 RMK CI1 DA-3805FT SLP414 =
2018-02-23 12:00 METAR CYCX 231200Z 00000KT 15SM FEW220 M13/M15 A3074 RMK CI1 DA-4195FT SLP414 =
2018-02-23 11:00 METAR CYCX 231100Z 00000KT 15SM SKC M14/M17 A3073 RMK DA-4445FT SLP410 =
2018-02-23 10:00 METAR CYCX 231000Z 00000KT 15SM SKC M14/M16 A3073 RMK DA-4389FT SLP411 =

Support USWX by starting your Amazon purchase here.